Terminal Aerodrome Forecast
Issued by NWS

Home | Current Version | Previous Version | Text Only | Print | Product List | Glossary On
Versions: 1 2 3 4 5 6 7 8 9 10 11 12
000
FTUS42 KGSP 222330
TAFAND
TAF
KAND 222330Z 2300/2324 00000KT P6SM BKN250
     FM230900 05007KT P6SM -RA OVC025
     FM231100 05008KT P6SM -RA OVC016
     FM231300 06012G20KT 3SM -RA BR OVC012
     FM231500 06013G21KT 2SM -RA BR OVC009
     FM231800 05008KT 1 1/2SM -RA BR OVC007=

USA.gov is the U.S. government's official web portal to all federal, state and local government web resources and services.